Dover, DE

1:45 PM EST on January 26, 2015 (GMT -0500)
Fifer Orchards | Change Station
CLOSE
Current Station
Personal Weather Station
Location: Delaware, DE
Elevation: 46 ft
Nearby Weather Stations

Elev 46 ft 39.12 °N, 75.57 °W | Updated 28 minutes ago

Light Snow
Light Snow Mist
34.5 °F
Feels Like 31 °F
N
4.0
Wind Variable Wind from NNW
Gusts 11.0 mph

Today
High -- | Low -- °F
--% Chance of Precip.
Yesterday
High -- | Low -- °F
Precip. -- in
7:13 AM 5:15 PM
Waxing Crescent, 45% visible
Pressure 29.71 in
Visibility 3.0 miles
Clouds Overcast 700 ft
Windchill 31 °F
Dew Point 33 °F
Humidity 95%
Rainfall 0.07 in
Snow Depth Not available.
UV 1 out of 12
Pollen .10 out of 12
Air Quality Not available.
Flu Activity Not available.
SPECI KDOV 261828Z 02013G19KT 3SM -SN BR OVC007 01/01 A2971 RMK AO2A PRESFR $

More Conditions Fewer Conditions

Pressure 29.71 in
Visibility 3.0 miles
Clouds Overcast 700 ft
Windchill 31 °F
Dew Point 33 °F
Humidity 95%
Rainfall 0.07 in
Snow Depth Not available.
UV 1 out of 12
Pollen .10 out of 12
Air Quality Not available.
Flu Activity Not available.
SPECI KDOV 261828Z 02013G19KT 3SM -SN BR OVC007 01/01 A2971 RMK AO2A PRESFR $

More Conditions Fewer Conditions

10-Day Weather Forecast

Almanac

Astronomy

Jan. 26, 2015 Rise Set
Actual Time
Civil Twilight
Nautical Twilight
Astronomical Twilight
Moon
Length of Visible Light
Length of Day
Tomorrow will be .
, % of the Moon is Illuminated

Today's Extremes

State Highs State Lows

Community

WunderPhotos

Upload Photos

1,790,312 photos uploaded!

WunderBlogs® & News

Nearby

Air Quality

  Air Quality AQ Index Pollutant
Not available.

Snow Depth

Station Depth Elevation

Earthquake Activity

City Distance Mag. Time & Date
Minimum magnitude displayed is 2.5.

Coastal Water Temperatures

Place Temperature

Nearby Weather Stations